Time;durP1;ratioP1;P1;durP2;ratioP2;P2;SDS_P1;SDS_P2;PMS_P1;PMS_P2;Temp;Humidity;BMP_temperature;BMP_pressure;BME280_temperature;BME280_humidity;BME280_pressure;Samples;Min_cycle;Max_cycle;Signal;HPM_P1;HPM_P2
2023/10/03 00:02:03;;;;;;;3.42;2.83;;;19.00;84.70;;;;;;6120343;23;20135;-80
2023/10/03 00:04:30;;;;;;;4.18;2.67;;;18.90;84.80;;;;;;6121408;23;20216;-80
2023/10/03 00:06:57;;;;;;;3.42;2.30;;;19.00;84.80;;;;;;6071505;23;20483;-81
2023/10/03 00:09:25;;;;;;;4.07;2.58;;;19.00;84.80;;;;;;6121833;23;20460;-80
2023/10/03 00:11:51;;;;;;;3.88;2.70;;;19.00;84.90;;;;;;6196312;23;20176;-82
2023/10/03 00:14:18;;;;;;;3.13;2.45;;;19.00;84.90;;;;;;6126797;23;20133;-82
2023/10/03 00:16:46;;;;;;;3.22;2.85;;;18.90;84.90;;;;;;6126821;23;20132;-82
2023/10/03 00:19:13;;;;;;;3.45;2.47;;;19.00;85.00;;;;;;6202240;23;20156;-80
2023/10/03 00:21:39;;;;;;;3.50;2.55;;;19.00;84.90;;;;;;6227400;23;20163;-81
2023/10/03 00:24:06;;;;;;;3.45;2.72;;;19.00;84.90;;;;;;6122945;23;20137;-80
2023/10/03 00:26:35;;;;;;;3.20;2.50;;;19.00;84.80;;;;;;6121824;23;20171;-81
2023/10/03 00:29:01;;;;;;;3.17;2.60;;;18.90;84.90;;;;;;6070944;23;20152;-81
2023/10/03 00:31:29;;;;;;;3.25;2.58;;;19.00;84.70;;;;;;6120248;23;20150;-80
2023/10/03 00:33:55;;;;;;;3.47;2.58;;;19.00;84.90;;;;;;6222420;23;20160;-81
2023/10/03 00:36:25;;;;;;;2.83;2.40;;;18.90;84.80;;;;;;6095701;23;20225;-84
2023/10/03 00:38:51;;;;;;;3.70;2.53;;;18.90;84.80;;;;;;6096694;23;20180;-83
2023/10/03 00:41:19;;;;;;;3.60;2.70;;;18.90;84.90;;;;;;6096267;23;20187;-81
2023/10/03 00:43:53;;;;;;;3.47;2.70;;;18.90;84.70;;;;;;6120236;23;20211;-82
2023/10/03 00:46:18;;;;;;;2.90;2.40;;;18.90;84.70;;;;;;6120532;23;20567;-83
2023/10/03 00:48:47;;;;;;;2.58;2.13;;;18.90;84.70;;;;;;6095643;23;20231;-81
2023/10/03 00:51:14;;;;;;;3.60;2.80;;;18.90;84.80;;;;;;6120171;23;20132;-80
2023/10/03 00:53:40;;;;;;;3.28;2.55;;;18.90;84.80;;;;;;6121013;23;20393;-83
2023/10/03 00:56:09;;;;;;;3.97;2.80;;;18.90;84.70;;;;;;6121564;23;20168;-83
2023/10/03 00:58:36;;;;;;;3.08;2.50;;;18.90;84.90;;;;;;6121600;23;20567;-84
2023/10/03 01:01:03;;;;;;;3.78;2.47;;;18.90;84.80;;;;;;6095987;23;20200;-83
2023/10/03 01:03:31;;;;;;;3.20;2.40;;;18.90;84.90;;;;;;6120250;23;20171;-83
2023/10/03 01:05:58;;;;;;;3.42;2.53;;;18.90;84.90;;;;;;6095938;23;20205;-81
2023/10/03 01:08:24;;;;;;;3.00;2.67;;;18.90;84.90;;;;;;6121272;23;20160;-80
2023/10/03 01:10:51;;;;;;;3.00;2.55;;;18.90;85.10;;;;;;6095784;23;20177;-84
2023/10/03 01:13:19;;;;;;;3.33;2.47;;;18.90;85.00;;;;;;6119837;23;20206;-82
2023/10/03 01:15:50;;;;;;;3.67;2.30;;;18.90;84.90;;;;;;6120784;23;20144;-82
2023/10/03 01:18:20;;;;;;;3.20;2.55;;;18.80;85.00;;;;;;6094999;23;20156;-82
2023/10/03 01:20:49;;;;;;;3.47;2.65;;;18.90;85.00;;;;;;6096328;23;20164;-81
2023/10/03 01:23:16;;;;;;;4.25;2.70;;;18.90;84.90;;;;;;6119982;23;20133;-83
2023/10/03 01:25:43;;;;;;;3.53;2.45;;;18.90;84.90;;;;;;6119448;23;20182;-82
2023/10/03 01:28:10;;;;;;;4.22;2.20;;;18.90;84.90;;;;;;6095781;23;20144;-82
2023/10/03 01:30:37;;;;;;;2.90;2.47;;;18.90;84.80;;;;;;6119778;23;20158;-80
2023/10/03 01:33:03;;;;;;;4.07;2.60;;;18.80;84.70;;;;;;6121216;23;20560;-84
2023/10/03 01:35:30;;;;;;;3.50;2.40;;;18.90;84.70;;;;;;6121159;23;20140;-79
2023/10/03 01:37:55;;;;;;;2.60;2.40;;;18.90;84.70;;;;;;6121441;23;20140;-81
2023/10/03 01:40:21;;;;;;;3.65;2.50;;;18.90;84.70;;;;;;6121016;23;20163;-80
2023/10/03 01:42:48;;;;;;;3.25;2.50;;;18.90;84.80;;;;;;6121278;23;20133;-82
2023/10/03 01:45:17;;;;;;;3.13;2.38;;;18.90;84.80;;;;;;6095559;23;20572;-80
2023/10/03 01:47:45;;;;;;;3.67;2.47;;;18.90;84.90;;;;;;6095459;23;20146;-82
2023/10/03 01:50:14;;;;;;;3.38;2.53;;;18.90;84.70;;;;;;6121189;23;20522;-83
2023/10/03 01:52:42;;;;;;;3.97;2.72;;;18.90;84.90;;;;;;6118840;23;20149;-80
2023/10/03 01:55:12;;;;;;;3.65;2.80;;;18.90;85.00;;;;;;6221394;23;20167;-84
2023/10/03 01:57:40;;;;;;;3.47;2.38;;;18.90;84.90;;;;;;6195562;23;20263;-81
2023/10/03 02:00:25;;;;;;;3.00;2.50;;;18.90;85.10;;;;;;6195965;23;20230;-80
2023/10/03 02:03:05;;;;;;;4.45;2.65;;;18.90;85.00;;;;;;6207714;23;20148;-80
2023/10/03 02:05:34;;;;;;;3.20;2.50;;;18.90;85.10;;;;;;6217378;23;20156;-80
2023/10/03 02:08:10;;;;;;;3.72;2.58;;;18.70;85.00;;;;;;6196079;23;20477;-82
2023/10/03 02:10:36;;;;;;;3.40;2.72;;;18.80;85.10;;;;;;6119923;23;20140;-82
2023/10/03 02:13:09;;;;;;;3.35;2.40;;;18.80;85.10;;;;;;6120832;23;20145;-81
2023/10/03 02:15:36;;;;;;;2.58;2.30;;;18.80;85.20;;;;;;6120858;23;20163;-82
2023/10/03 02:18:02;;;;;;;3.00;2.55;;;18.80;85.00;;;;;;6095256;23;20182;-82
2023/10/03 02:20:30;;;;;;;2.70;2.35;;;18.80;84.90;;;;;;6120675;23;20686;-85
2023/10/03 02:22:57;;;;;;;2.70;2.13;;;18.80;84.80;;;;;;6220539;23;20202;-82
2023/10/03 02:25:36;;;;;;;3.28;2.45;;;18.80;84.80;;;;;;6046199;23;20160;-81
2023/10/03 02:28:05;;;;;;;3.45;2.50;;;18.80;84.80;;;;;;6122112;23;20156;-81
2023/10/03 02:30:31;;;;;;;2.40;2.03;;;18.80;84.90;;;;;;6096769;23;20661;-81
2023/10/03 02:32:58;;;;;;;2.65;2.35;;;18.90;84.90;;;;;;6120436;23;20147;-83
2023/10/03 02:35:25;;;;;;;3.10;2.47;;;18.80;84.70;;;;;;6096721;23;20140;-81
2023/10/03 02:37:56;;;;;;;2.95;2.30;;;18.80;84.80;;;;;;6120690;23;20141;-83
2023/10/03 02:40:26;;;;;;;3.72;2.30;;;18.80;84.80;;;;;;6120826;23;20175;-81
2023/10/03 02:42:54;;;;;;;3.38;2.70;;;18.90;84.80;;;;;;6120898;23;20488;-80
2023/10/03 02:45:23;;;;;;;3.88;2.80;;;18.90;84.70;;;;;;6122262;23;20160;-82
2023/10/03 02:47:51;;;;;;;3.28;2.40;;;18.90;84.90;;;;;;6122050;23;20165;-83
2023/10/03 02:50:18;;;;;;;2.72;2.25;;;18.90;84.70;;;;;;6120559;23;20140;-80
2023/10/03 02:52:45;;;;;;;3.10;2.28;;;18.80;84.50;;;;;;6196805;23;20591;-83
2023/10/03 02:55:14;;;;;;;3.42;2.42;;;18.90;84.60;;;;;;6122219;23;20584;-83
2023/10/03 02:57:41;;;;;;;3.00;2.30;;;18.90;84.80;;;;;;6196347;23;20206;-84
2023/10/03 03:00:15;;;;;;;4.75;2.60;;;18.80;84.80;;;;;;6095068;23;20186;-81
2023/10/03 03:02:42;;;;;;;2.70;2.33;;;18.80;84.80;;;;;;6120677;23;20231;-81
2023/10/03 03:05:10;;;;;;;3.25;2.60;;;18.80;84.90;;;;;;6096733;23;20198;-81
2023/10/03 03:07:41;;;;;;;3.70;2.72;;;18.90;85.00;;;;;;6096680;23;20580;-83
2023/10/03 03:10:08;;;;;;;2.53;2.28;;;18.80;84.90;;;;;;6095847;23;20164;-83
2023/10/03 03:12:35;;;;;;;3.08;2.40;;;18.80;85.00;;;;;;6122107;23;20188;-83
2023/10/03 03:15:05;;;;;;;3.55;2.42;;;18.80;85.00;;;;;;6122400;23;20230;-83
2023/10/03 03:17:31;;;;;;;4.47;2.30;;;18.80;84.90;;;;;;6196629;23;20171;-83
2023/10/03 03:19:59;;;;;;;3.28;2.28;;;18.80;85.00;;;;;;6120756;23;20251;-82
2023/10/03 03:22:26;;;;;;;3.05;2.40;;;18.80;84.90;;;;;;6196811;23;20661;-85
2023/10/03 03:24:53;;;;;;;3.08;2.50;;;18.80;85.00;;;;;;6120333;23;20500;-82
2023/10/03 03:27:19;;;;;;;3.10;2.35;;;18.80;85.00;;;;;;6120250;23;20144;-82
2023/10/03 03:30:28;;;;;;;3.55;2.30;;;18.80;84.90;;;;;;6096181;23;20137;-84
2023/10/03 03:32:30;;;;;;;3.42;2.40;;;18.80;84.80;;;;;;6121883;23;20186;-81
2023/10/03 03:35:01;;;;;;;3.45;2.60;;;18.80;84.90;;;;;;6120676;23;20579;-83
2023/10/03 03:37:37;;;;;;;5.22;2.60;;;18.80;84.90;;;;;;6220267;23;20160;-82
2023/10/03 03:40:12;;;;;;;2.97;2.30;;;18.80;84.90;;;;;;6215932;23;20622;-84
2023/10/03 03:42:38;;;;;;;3.92;2.40;;;18.80;84.90;;;;;;6120573;23;20202;-84
2023/10/03 03:45:07;;;;;;;3.75;2.53;;;18.80;84.90;;;;;;6122026;23;20136;-81
2023/10/03 03:47:33;;;;;;;2.90;2.50;;;18.70;84.90;;;;;;6197111;23;20156;-83
2023/10/03 03:50:01;;;;;;;3.97;2.40;;;18.80;85.00;;;;;;6121839;23;20230;-80
2023/10/03 03:52:32;;;;;;;3.17;2.50;;;18.70;85.10;;;;;;6119662;23;20136;-84
2023/10/03 03:55:03;;;;;;;3.17;2.47;;;18.70;85.00;;;;;;6121960;23;20559;-82
2023/10/03 03:57:29;;;;;;;3.50;2.50;;;18.80;85.00;;;;;;6137923;22;20278;-83
2023/10/03 03:59:56;;;;;;;3.25;2.50;;;18.80;85.00;;;;;;6125400;23;20206;-81
2023/10/03 04:02:24;;;;;;;2.72;2.38;;;18.80;85.10;;;;;;6125772;23;20197;-85
2023/10/03 04:04:51;;;;;;;3.00;2.38;;;18.80;85.00;;;;;;6202221;23;20155;-85
2023/10/03 04:07:16;;;;;;;3.35;2.50;;;18.70;85.10;;;;;;6176851;23;20491;-84
2023/10/03 04:09:42;;;;;;;2.88;2.33;;;18.80;85.20;;;;;;6124523;23;20594;-82
2023/10/03 04:12:13;;;;;;;3.78;2.38;;;18.70;84.90;;;;;;6100669;23;20151;-83
2023/10/03 04:14:38;;;;;;;3.58;2.20;;;18.70;85.00;;;;;;6176731;23;20513;-83
2023/10/03 04:17:05;;;;;;;2.78;2.05;;;18.70;85.00;;;;;;6125007;23;20158;-84
2023/10/03 04:19:31;;;;;;;3.10;2.45;;;18.70;85.00;;;;;;6101199;23;20558;-82
2023/10/03 04:21:56;;;;;;;3.95;2.50;;;18.70;85.00;;;;;;6124711;23;20175;-81
2023/10/03 04:24:22;;;;;;;2.70;2.30;;;18.70;85.20;;;;;;6150636;22;20147;-84
2023/10/03 04:26:50;;;;;;;3.42;2.70;;;18.70;85.10;;;;;;6124564;23;20624;-80
2023/10/03 04:29:16;;;;;;;2.88;2.20;;;18.70;85.10;;;;;;6101509;23;20468;-84
2023/10/03 04:31:44;;;;;;;2.85;2.47;;;18.70;85.00;;;;;;6125281;23;20151;-82
2023/10/03 04:34:11;;;;;;;3.28;2.70;;;18.70;85.00;;;;;;6151042;22;20136;-81
2023/10/03 04:36:37;;;;;;;2.90;2.25;;;18.70;85.20;;;;;;6125184;23;20533;-83
2023/10/03 04:39:04;;;;;;;3.58;2.65;;;18.70;85.00;;;;;;6126674;23;20132;-82
2023/10/03 04:41:33;;;;;;;2.67;2.22;;;18.80;85.20;;;;;;6076961;23;20195;-82
2023/10/03 04:44:02;;;;;;;3.17;2.53;;;18.70;85.20;;;;;;6176911;23;20607;-83
2023/10/03 04:46:29;;;;;;;3.15;2.30;;;18.70;85.20;;;;;;6050943;23;20468;-81
2023/10/03 04:48:55;;;;;;;3.20;2.53;;;18.70;85.20;;;;;;6174153;23;20163;-81
2023/10/03 04:51:22;;;;;;;3.08;2.33;;;18.70;85.30;;;;;;6149086;22;20459;-81
2023/10/03 04:53:48;;;;;;;2.90;2.60;;;18.70;85.40;;;;;;6201113;23;20662;-83
2023/10/03 04:56:14;;;;;;;2.70;2.10;;;18.70;85.50;;;;;;6075549;22;20242;-82
2023/10/03 04:58:41;;;;;;;2.88;2.40;;;18.70;85.30;;;;;;6151124;22;20224;-82
2023/10/03 05:01:07;;;;;;;2.60;2.40;;;18.70;85.30;;;;;;6101143;23;20171;-83
2023/10/03 05:03:33;;;;;;;3.50;2.35;;;18.70;85.30;;;;;;6125153;23;20142;-84
2023/10/03 05:06:01;;;;;;;3.50;2.53;;;18.70;85.40;;;;;;6150893;22;20132;-84
2023/10/03 05:08:27;;;;;;;3.22;2.58;;;18.60;85.40;;;;;;6151423;22;20155;-81
2023/10/03 05:10:54;;;;;;;3.28;2.60;;;18.70;85.60;;;;;;6150950;22;20135;-80
2023/10/03 05:13:20;;;;;;;3.40;2.45;;;18.70;85.60;;;;;;6100695;23;20152;-82
2023/10/03 05:15:45;;;;;;;2.78;2.47;;;18.70;85.70;;;;;;6124990;23;20882;-82
2023/10/03 05:18:11;;;;;;;3.45;2.53;;;18.60;85.80;;;;;;6124780;23;20143;-82
2023/10/03 05:20:38;;;;;;;3.20;2.60;;;18.60;85.60;;;;;;6150696;22;20168;-82
2023/10/03 05:23:05;;;;;;;2.92;2.40;;;18.60;85.60;;;;;;6176164;23;20158;-82
2023/10/03 05:25:36;;;;;;;3.67;2.72;;;18.70;85.70;;;;;;6124708;23;20144;-82
2023/10/03 05:28:02;;;;;;;3.67;2.60;;;18.60;85.80;;;;;;6126344;23;20250;-80
2023/10/03 05:30:30;;;;;;;3.20;2.22;;;18.60;85.70;;;;;;6100853;23;20775;-81
2023/10/03 05:32:56;;;;;;;2.78;2.28;;;18.70;85.60;;;;;;6150547;23;20166;-83
2023/10/03 05:35:22;;;;;;;2.75;2.45;;;18.60;85.70;;;;;;6150835;22;20139;-81
2023/10/03 05:37:50;;;;;;;2.92;2.40;;;18.60;85.80;;;;;;6051251;23;20230;-83
2023/10/03 05:40:19;;;;;;;2.55;2.13;;;18.60;85.70;;;;;;6124348;23;20198;-81
2023/10/03 05:42:45;;;;;;;2.13;1.92;;;18.60;85.30;;;;;;6125308;23;20129;-80
2023/10/03 05:45:17;;;;;;;2.60;2.30;;;18.60;84.80;;;;;;6150710;23;20136;-84
2023/10/03 05:47:45;;;;;;;3.08;2.40;;;18.60;84.40;;;;;;6175790;23;20159;-83
2023/10/03 05:50:11;;;;;;;3.55;2.17;;;18.70;84.40;;;;;;6124585;23;20371;-81
2023/10/03 05:52:37;;;;;;;3.25;2.40;;;18.60;84.10;;;;;;6124090;23;20171;-84
2023/10/03 05:55:02;;;;;;;2.92;2.28;;;18.60;83.80;;;;;;6124570;23;20590;-83
2023/10/03 05:57:28;;;;;;;3.22;2.30;;;18.70;83.90;;;;;;6100228;23;20240;-82
2023/10/03 05:59:54;;;;;;;3.03;2.47;;;18.60;83.40;;;;;;6124933;23;20198;-82
2023/10/03 06:02:22;;;;;;;3.28;2.40;;;18.70;83.60;;;;;;6078221;23;20155;-86
2023/10/03 06:04:49;;;;;;;3.67;2.55;;;18.70;83.50;;;;;;6079367;23;20136;-82
2023/10/03 06:07:17;;;;;;;3.25;2.22;;;18.70;82.90;;;;;;6104032;23;20132;-84
2023/10/03 06:09:43;;;;;;;3.42;2.47;;;18.80;83.10;;;;;;6080061;23;20158;-83
2023/10/03 06:12:09;;;;;;;2.83;2.28;;;18.70;82.70;;;;;;6101999;23;20219;-84
2023/10/03 06:14:35;;;;;;;2.92;2.50;;;18.70;82.10;;;;;;6101436;23;20152;-83
2023/10/03 06:17:01;;;;;;;2.83;2.17;;;18.70;81.50;;;;;;6126199;23;20156;-82
2023/10/03 06:19:26;;;;;;;2.50;2.10;;;18.80;81.70;;;;;;6077829;23;20200;-82
2023/10/03 06:21:52;;;;;;;4.25;2.75;;;18.80;81.20;;;;;;6126614;23;20445;-80
2023/10/03 06:24:18;;;;;;;2.95;2.40;;;18.80;81.50;;;;;;6101525;23;20167;-82
2023/10/03 06:26:47;;;;;;;2.30;2.08;;;18.80;81.50;;;;;;6127867;23;20155;-81
2023/10/03 06:29:15;;;;;;;2.95;2.25;;;18.80;81.00;;;;;;6155316;22;20224;-82
2023/10/03 06:31:40;;;;;;;3.08;2.28;;;18.80;81.10;;;;;;6105259;23;20194;-81
2023/10/03 06:34:06;;;;;;;3.63;2.65;;;18.80;81.60;;;;;;6110170;23;20571;-81
2023/10/03 06:36:32;;;;;;;4.15;2.58;;;18.80;81.10;;;;;;6133498;23;20220;-79
2023/10/03 06:38:59;;;;;;;3.75;2.67;;;18.80;80.90;;;;;;6131265;23;20140;-79
2023/10/03 06:41:26;;;;;;;3.17;2.40;;;18.90;81.20;;;;;;6131271;23;20167;-81
2023/10/03 06:43:51;;;;;;;3.17;2.75;;;18.90;81.50;;;;;;6152796;23;20189;-80
2023/10/03 06:46:17;;;;;;;3.47;2.70;;;18.90;81.30;;;;;;6125705;23;20143;-80
2023/10/03 06:48:46;;;;;;;3.10;2.65;;;18.90;81.30;;;;;;6125799;23;20140;-80
2023/10/03 06:51:12;;;;;;;3.60;3.08;;;18.90;81.00;;;;;;6126093;23;20131;-80
2023/10/03 06:53:39;;;;;;;3.85;2.92;;;19.00;80.70;;;;;;6124999;23;20494;-80
2023/10/03 06:56:04;;;;;;;4.03;3.00;;;18.90;80.70;;;;;;6125901;23;20139;-80
2023/10/03 06:58:32;;;;;;;4.57;3.15;;;19.00;80.70;;;;;;6101354;23;20722;-81
2023/10/03 07:00:57;;;;;;;3.17;2.60;;;18.90;80.60;;;;;;6075827;23;20191;-82
2023/10/03 07:03:23;;;;;;;3.92;2.97;;;18.90;81.90;;;;;;6125334;23;20943;-81
2023/10/03 07:05:51;;;;;;;3.08;2.70;;;18.90;81.10;;;;;;6101138;23;20594;-80
2023/10/03 07:08:16;;;;;;;3.72;2.67;;;18.90;80.90;;;;;;6076043;23;20155;-80
2023/10/03 07:10:42;;;;;;;3.92;2.83;;;18.90;80.70;;;;;;6151109;22;20150;-80
2023/10/03 07:13:13;;;;;;;5.53;3.10;;;18.90;80.50;;;;;;6124742;23;20513;-78
2023/10/03 07:15:39;;;;;;;3.78;2.80;;;19.10;80.30;;;;;;6125847;23;20190;-81
2023/10/03 07:18:05;;;;;;;3.95;3.00;;;19.00;80.50;;;;;;6125479;23;20144;-82
2023/10/03 07:20:31;;;;;;;4.22;3.20;;;19.00;80.20;;;;;;6124567;23;20264;-83
2023/10/03 07:22:57;;;;;;;4.03;2.67;;;19.00;80.00;;;;;;6101209;23;20234;-83
2023/10/03 07:25:22;;;;;;;3.55;2.80;;;19.10;80.10;;;;;;6150898;22;20136;-83
2023/10/03 07:27:51;;;;;;;4.32;3.00;;;19.10;79.90;;;;;;6103469;23;20585;-87
2023/10/03 07:30:17;;;;;;;3.88;2.88;;;19.10;79.70;;;;;;6079565;23;20155;-87
2023/10/03 07:32:45;;;;;;;3.55;2.67;;;19.10;80.10;;;;;;6080692;23;20186;-86
2023/10/03 07:35:16;;;;;;;5.18;2.88;;;19.10;80.20;;;;;;6129551;23;20136;-86
2023/10/03 07:37:43;;;;;;;5.53;3.00;;;19.00;80.00;;;;;;6104844;23;20144;-84
2023/10/03 07:40:09;;;;;;;3.70;2.70;;;19.00;80.30;;;;;;6104484;23;20167;-85
2023/10/03 07:42:44;;;;;;;4.38;3.03;;;18.90;80.50;;;;;;6076101;23;20666;-87
2023/10/03 07:45:26;;;;;;;4.35;3.08;;;18.90;80.60;;;;;;6055563;23;20155;-85
2023/10/03 07:47:52;;;;;;;4.55;3.13;;;18.90;80.70;;;;;;6081733;23;20182;-85
2023/10/03 07:50:21;;;;;;;4.22;2.90;;;18.90;80.60;;;;;;6079930;23;20145;-85
2023/10/03 07:52:51;;;;;;;3.67;3.00;;;18.90;80.60;;;;;;6075230;23;20194;-84
2023/10/03 07:55:24;;;;;;;5.03;2.90;;;18.90;80.60;;;;;;6161660;23;20178;-83
2023/10/03 07:58:00;;;;;;;4.30;3.00;;;18.80;80.50;;;;;;6073256;23;20208;-85
2023/10/03 08:00:34;;;;;;;3.58;2.55;;;18.90;80.50;;;;;;5987727;23;20186;-85
2023/10/03 08:03:08;;;;;;;3.55;2.67;;;18.90;80.30;;;;;;5986900;24;20210;-85
2023/10/03 08:05:34;;;;;;;4.60;3.10;;;18.90;80.50;;;;;;5941326;24;20162;-82
2023/10/03 08:08:03;;;;;;;4.35;3.05;;;18.90;80.40;;;;;;5940921;24;20229;-84
2023/10/03 08:10:33;;;;;;;3.30;2.50;;;18.90;80.50;;;;;;5931214;24;20238;-84
2023/10/03 08:13:16;;;;;;;;;;;;;;;;;;;;;
2023/10/03 08:15:57;;;;;;;5.60;3.38;;;18.90;80.30;;;;;;5906248;24;20720;-85
2023/10/03 08:18:36;;;;;;;3.63;2.90;;;18.90;80.60;;;;;;5930299;24;20164;-84
2023/10/03 08:21:08;;;;;;;6.18;3.30;;;18.90;80.80;;;;;;5931596;24;20656;-85
2023/10/03 08:24:14;;;;;;;5.18;2.95;;;18.90;80.70;;;;;;5903585;24;20158;-84
2023/10/03 08:26:46;;;;;;;7.22;2.90;;;18.80;80.40;;;;;;5933089;24;20164;-83
2023/10/03 08:29:21;;;;;;;7.78;3.08;;;18.80;80.30;;;;;;5978145;24;20187;-82
2023/10/03 08:31:57;;;;;;;4.22;2.90;;;18.90;80.90;;;;;;5955175;23;20191;-82
2023/10/03 08:34:30;;;;;;;4.68;3.00;;;18.90;80.20;;;;;;6086081;23;20183;-83
2023/10/03 08:37:01;;;;;;;4.10;2.95;;;18.90;80.40;;;;;;6109756;23;20152;-83
2023/10/03 08:39:32;;;;;;;6.40;2.83;;;18.90;80.50;;;;;;6110571;23;20163;-84
2023/10/03 08:42:17;;;;;;;4.63;2.75;;;18.90;80.50;;;;;;6105343;23;20182;-83
2023/10/03 08:44:53;;;;;;;6.18;2.95;;;18.90;80.50;;;;;;6090776;23;20163;-83
2023/10/03 08:47:29;;;;;;;5.28;2.88;;;18.90;80.40;;;;;;6070829;23;20151;-83
2023/10/03 08:50:14;;;;;;;3.90;2.63;;;18.90;80.40;;;;;;6093822;23;20205;-83
2023/10/03 08:52:56;;;;;;;4.50;2.83;;;18.90;81.20;;;;;;6142049;23;20143;-82
2023/10/03 08:55:27;;;;;;;3.15;2.63;;;18.90;80.30;;;;;;6115313;23;20198;-85
2023/10/03 08:58:00;;;;;;;3.40;2.53;;;18.90;80.20;;;;;;6117668;23;20209;-83
2023/10/03 09:00:40;;;;;;;4.20;3.08;;;18.90;80.10;;;;;;6144466;23;20186;-83
2023/10/03 09:03:09;;;;;;;8.25;3.03;;;18.90;80.20;;;;;;6127725;23;20197;-82
2023/10/03 09:05:39;;;;;;;4.38;3.00;;;18.90;80.30;;;;;;6096564;23;20156;-83
2023/10/03 09:08:09;;;;;;;4.50;2.58;;;18.90;80.10;;;;;;6081821;23;20201;-83
2023/10/03 09:10:42;;;;;;;4.13;3.00;;;18.90;79.90;;;;;;6080732;23;20168;-84
2023/10/03 09:13:15;;;;;;;4.90;2.90;;;18.90;79.70;;;;;;6106910;23;20167;-84
2023/10/03 09:15:42;;;;;;;4.80;3.10;;;18.90;79.80;;;;;;6104989;23;20136;-84
2023/10/03 09:18:10;;;;;;;5.28;3.15;;;18.90;79.80;;;;;;6106967;23;20152;-85
2023/10/03 09:20:42;;;;;;;4.22;2.85;;;18.90;79.80;;;;;;6131352;23;20184;-84
2023/10/03 09:23:08;;;;;;;4.85;3.22;;;18.90;79.60;;;;;;6083734;23;20149;-84
2023/10/03 09:25:38;;;;;;;4.78;3.10;;;18.90;79.70;;;;;;6130601;23;20603;-84
2023/10/03 09:28:09;;;;;;;4.95;3.13;;;19.00;79.70;;;;;;6083335;23;20163;-83
2023/10/03 09:30:38;;;;;;;4.30;3.00;;;18.80;79.40;;;;;;6181717;23;20215;-86
2023/10/03 09:33:05;;;;;;;3.60;2.97;;;18.90;79.40;;;;;;6082934;23;20182;-85
2023/10/03 09:35:33;;;;;;;4.88;3.30;;;18.90;79.30;;;;;;6105938;23;20148;-83
2023/10/03 09:38:06;;;;;;;3.80;2.83;;;18.90;79.30;;;;;;6082102;23;20167;-84
2023/10/03 09:40:50;;;;;;;4.32;3.20;;;18.90;79.00;;;;;;6182019;23;20206;-83
2023/10/03 09:43:17;;;;;;;4.15;3.17;;;19.00;79.20;;;;;;6078894;23;20162;-84
2023/10/03 09:45:55;;;;;;;3.80;3.08;;;18.90;79.30;;;;;;6127468;23;20133;-82
2023/10/03 09:48:24;;;;;;;4.82;3.22;;;18.90;79.10;;;;;;6057428;23;20603;-84
2023/10/03 09:51:05;;;;;;;4.85;3.50;;;18.90;79.20;;;;;;6103221;23;20156;-84
2023/10/03 09:53:32;;;;;;;4.75;3.30;;;18.90;79.30;;;;;;6176198;23;20160;-84
2023/10/03 09:55:59;;;;;;;4.57;3.22;;;18.80;78.70;;;;;;6079896;23;20174;-82
2023/10/03 09:58:31;;;;;;;4.53;3.20;;;18.80;79.00;;;;;;6103142;23;20192;-84
2023/10/03 10:00:59;;;;;;;3.63;2.97;;;18.90;78.90;;;;;;6104463;23;20172;-84
2023/10/03 10:03:37;;;;;;;5.30;3.58;;;18.90;78.80;;;;;;6173856;23;20157;-84
2023/10/03 10:06:28;;;;;;;8.18;3.50;;;18.90;78.80;;;;;;6050209;23;20244;-83
2023/10/03 10:09:13;;;;;;;5.13;3.55;;;18.90;78.80;;;;;;6053197;23;20152;-84
2023/10/03 10:12:11;;;;;;;5.47;3.60;;;18.90;78.80;;;;;;6147876;23;20156;-84
2023/10/03 10:15:26;;;;;;;3.85;3.10;;;19.00;78.90;;;;;;6028310;23;20547;-83
2023/10/03 10:17:57;;;;;;;5.15;3.40;;;18.90;79.60;;;;;;6076862;23;20164;-84
2023/10/03 10:20:37;;;;;;;4.35;3.17;;;19.00;78.70;;;;;;6160825;23;20751;-85
2023/10/03 10:23:21;;;;;;;4.88;3.63;;;18.90;78.60;;;;;;6162064;23;20155;-84
2023/10/03 10:25:51;;;;;;;5.20;3.45;;;19.00;78.70;;;;;;6053922;23;20215;-83
2023/10/03 10:28:31;;;;;;;4.07;3.17;;;18.90;78.60;;;;;;6055859;23;20159;-85
2023/10/03 10:31:21;;;;;;;5.30;3.33;;;18.90;78.50;;;;;;6045093;23;20158;-87
2023/10/03 10:34:13;;;;;;;5.20;3.65;;;18.90;78.70;;;;;;6056981;23;20161;-85
2023/10/03 10:37:10;;;;;;;5.25;3.25;;;18.90;78.60;;;;;;6082250;23;20157;-85
2023/10/03 10:40:27;;;;;;;5.25;3.53;;;18.90;78.50;;;;;;6080009;23;20204;-84
2023/10/03 10:43:12;;;;;;;4.95;3.30;;;18.90;78.50;;;;;;6018730;23;20158;-85
2023/10/03 10:45:52;;;;;;;5.85;3.70;;;18.90;78.50;;;;;;6020065;23;20248;-85
2023/10/03 10:48:28;;;;;;;5.07;3.35;;;18.90;78.70;;;;;;5927203;24;20166;-86
2023/10/03 10:51:26;;;;;;;4.15;3.13;;;18.90;78.70;;;;;;5897064;24;20609;-84
2023/10/03 10:54:05;;;;;;;5.38;3.53;;;18.90;78.70;;;;;;5850414;24;20167;-84
2023/10/03 10:56:32;;;;;;;4.75;3.58;;;18.90;78.80;;;;;;5850806;24;20176;-83
2023/10/03 10:59:04;;;;;;;5.00;3.60;;;18.90;78.70;;;;;;5850658;24;20155;-85
2023/10/03 11:01:46;;;;;;;5.07;3.63;;;18.90;78.40;;;;;;5857635;24;20225;-84
2023/10/03 11:04:29;;;;;;;4.35;3.70;;;19.00;78.40;;;;;;5860130;24;20181;-82
2023/10/03 11:06:55;;;;;;;4.43;3.33;;;19.00;78.30;;;;;;5903993;24;20153;-84
2023/10/03 11:09:23;;;;;;;4.93;3.67;;;19.00;78.00;;;;;;5929758;24;20156;-83
2023/10/03 11:11:51;;;;;;;4.68;3.30;;;19.10;78.20;;;;;;5933390;23;20212;-83
2023/10/03 11:14:34;;;;;;;5.20;3.30;;;19.10;78.10;;;;;;5935093;23;20164;-84
2023/10/03 11:17:07;;;;;;;4.22;3.10;;;19.10;78.10;;;;;;5934413;24;20160;-82
2023/10/03 11:19:37;;;;;;;5.00;3.60;;;19.00;78.00;;;;;;5929455;24;20600;-84
2023/10/03 11:22:06;;;;;;;4.40;3.28;;;19.10;77.90;;;;;;5903593;24;20185;-84
2023/10/03 11:24:42;;;;;;;4.88;3.60;;;19.10;77.90;;;;;;5903822;24;20598;-84
2023/10/03 11:27:09;;;;;;;4.43;3.30;;;19.10;77.80;;;;;;5917635;24;20160;-85
2023/10/03 11:29:37;;;;;;;5.50;3.28;;;19.10;77.70;;;;;;5913030;24;20172;-82
2023/10/03 11:32:04;;;;;;;4.70;3.50;;;19.10;77.60;;;;;;5934104;24;20160;-83
2023/10/03 11:34:32;;;;;;;5.18;3.42;;;19.20;77.60;;;;;;5935034;23;20164;-84
2023/10/03 11:37:04;;;;;;;3.97;3.33;;;19.20;77.60;;;;;;5933903;24;20262;-85
2023/10/03 11:39:46;;;;;;;5.57;3.60;;;19.20;77.60;;;;;;5935524;24;20156;-83
2023/10/03 11:42:27;;;;;;;4.25;3.10;;;19.20;77.60;;;;;;5937522;24;20280;-83
2023/10/03 11:45:00;;;;;;;4.43;3.28;;;19.20;77.40;;;;;;5934000;23;20160;-83
2023/10/03 11:47:27;;;;;;;4.78;3.47;;;19.20;78.40;;;;;;5980115;23;20171;-86
2023/10/03 11:49:58;;;;;;;6.10;3.33;;;19.20;77.60;;;;;;6002550;23;20181;-83
2023/10/03 11:52:29;;;;;;;4.95;3.55;;;19.20;77.50;;;;;;5974355;23;20165;-84
2023/10/03 11:55:20;;;;;;;4.38;2.90;;;19.20;77.20;;;;;;5979938;23;20165;-86
2023/10/03 11:57:52;;;;;;;4.40;3.30;;;19.20;77.20;;;;;;6112435;23;20208;-84
2023/10/03 12:00:18;;;;;;;4.38;3.50;;;19.30;77.30;;;;;;6197623;23;20188;-84
2023/10/03 12:02:49;;;;;;;4.15;3.00;;;19.20;77.40;;;;;;6230957;23;20145;-86
2023/10/03 12:05:27;;;;;;;4.70;3.42;;;19.20;77.20;;;;;;6257006;23;20129;-85
2023/10/03 12:07:56;;;;;;;5.63;3.50;;;19.20;77.50;;;;;;6257879;23;20205;-85
2023/10/03 12:10:24;;;;;;;4.53;3.40;;;19.10;77.80;;;;;;6233327;23;20134;-83
2023/10/03 12:12:53;;;;;;;4.85;3.22;;;19.10;77.90;;;;;;6199748;23;20162;-84
2023/10/03 12:15:24;;;;;;;4.55;3.63;;;19.10;78.20;;;;;;6114234;23;20162;-84
2023/10/03 12:18:05;;;;;;;5.50;3.40;;;19.00;78.30;;;;;;6084087;23;20164;-83
2023/10/03 12:20:38;;;;;;;5.28;3.30;;;19.10;78.10;;;;;;6057656;23;20216;-84
2023/10/03 12:23:06;;;;;;;4.65;3.45;;;19.10;78.00;;;;;;6080275;23;20592;-83
2023/10/03 12:25:38;;;;;;;4.25;3.35;;;19.20;78.00;;;;;;6050637;23;20156;-86
2023/10/03 12:28:05;;;;;;;4.32;3.45;;;19.20;77.60;;;;;;6051464;23;20149;-86
2023/10/03 12:30:32;;;;;;;4.22;3.28;;;19.30;77.50;;;;;;6051729;23;21042;-86
2023/10/03 12:33:04;;;;;;;4.68;3.47;;;19.20;77.40;;;;;;6052424;23;20180;-84
2023/10/03 12:35:34;;;;;;;3.80;3.10;;;19.20;77.30;;;;;;6051941;23;20189;-83
2023/10/03 12:38:07;;;;;;;3.67;3.00;;;19.20;77.20;;;;;;6052214;23;20162;-83
2023/10/03 12:40:40;;;;;;;3.83;2.83;;;19.20;77.10;;;;;;6026711;23;20665;-84
2023/10/03 12:43:10;;;;;;;4.70;3.40;;;19.20;76.60;;;;;;6039221;23;20156;-83
2023/10/03 12:45:49;;;;;;;4.55;3.00;;;19.20;76.50;;;;;;6030004;23;20154;-83
2023/10/03 12:48:23;;;;;;;4.20;3.00;;;19.20;76.70;;;;;;6016827;23;20154;-85
2023/10/03 12:51:00;;;;;;;4.45;3.17;;;19.20;76.70;;;;;;6001444;23;20168;-86
2023/10/03 12:53:38;;;;;;;3.75;2.80;;;19.20;76.90;;;;;;6015747;23;20639;-84
2023/10/03 12:56:15;;;;;;;3.85;3.20;;;19.20;76.60;;;;;;5993333;23;20280;-86
2023/10/03 12:58:48;;;;;;;3.80;3.10;;;19.10;76.90;;;;;;6042854;23;20239;-85
2023/10/03 13:01:14;;;;;;;4.88;2.83;;;19.10;76.80;;;;;;6021659;23;20327;-84
2023/10/03 13:04:01;;;;;;;4.05;2.80;;;19.20;76.70;;;;;;6022479;23;20154;-85
2023/10/03 13:06:35;;;;;;;4.28;3.10;;;19.20;76.60;;;;;;5975640;23;20174;-86